Time,TemperatureF,DewpointF,PressureIn,WindDirection,WindDirectionDegrees,WindSpeedMPH,WindSpeedGustMPH,Humidity,HourlyPrecipIn,Conditions,Clouds,dailyrainin,SoftwareType,DateUTC
2013-09-08 00:13:00,60.0,41.0,-100.00,WSW,240,5.0,12.0,49,0.00,,,0.00,,2013-09-08 06:13:00,
2013-09-08 00:21:00,60.0,41.0,-100.00,WSW,240,5.0,12.0,49,0.00,,,0.00,,2013-09-08 06:21:00,
2013-09-08 00:33:00,60.0,41.0,-100.00,WSW,240,5.0,12.0,49,0.00,,,0.00,,2013-09-08 06:33:00,
2013-09-08 00:42:00,57.0,44.0,-100.00,NW,307,6.0,14.0,61,0.00,,,0.00,,2013-09-08 06:42:00,
2013-09-08 01:12:00,57.0,44.0,-100.00,NW,307,6.0,14.0,61,0.00,,,0.00,,2013-09-08 07:12:00,
2013-09-08 01:23:00,57.0,44.0,-100.00,NW,307,6.0,14.0,61,0.00,,,0.00,,2013-09-08 07:23:00,
2013-09-08 01:31:00,57.0,44.0,-100.00,NW,307,6.0,14.0,61,0.00,,,0.00,,2013-09-08 07:31:00,
2013-09-08 01:42:00,56.0,43.0,-100.00,North,355,3.0,13.0,62,0.00,,,0.00,,2013-09-08 07:42:00,
2013-09-08 02:11:00,56.0,43.0,-100.00,North,355,3.0,13.0,62,0.00,,,0.00,,2013-09-08 08:11:00,
2013-09-08 02:22:00,56.0,43.0,-100.00,North,355,3.0,13.0,62,0.00,,,0.00,,2013-09-08 08:22:00,
2013-09-08 02:32:00,56.0,43.0,-100.00,North,355,3.0,13.0,62,0.00,,,0.00,,2013-09-08 08:32:00,
2013-09-08 02:42:00,54.0,42.0,-100.00,ESE,105,2.0,6.0,64,0.00,,,0.00,,2013-09-08 08:42:00,
2013-09-08 03:11:00,54.0,42.0,-100.00,ESE,105,2.0,6.0,64,0.00,,,0.00,,2013-09-08 09:11:00,
2013-09-08 03:22:00,54.0,42.0,-100.00,ESE,105,2.0,6.0,64,0.00,,,0.00,,2013-09-08 09:22:00,
2013-09-08 03:33:00,54.0,42.0,-100.00,ESE,105,2.0,6.0,64,0.00,,,0.00,,2013-09-08 09:33:00,
2013-09-08 03:42:00,55.0,43.0,-100.00,ESE,123,4.0,7.0,64,0.00,,,0.00,,2013-09-08 09:42:00,
2013-09-08 04:12:00,55.0,43.0,-100.00,ESE,123,4.0,7.0,64,0.00,,,0.00,,2013-09-08 10:12:00,
2013-09-08 04:23:00,55.0,43.0,-100.00,ESE,123,4.0,7.0,64,0.00,,,0.00,,2013-09-08 10:23:00,
2013-09-08 04:33:00,55.0,43.0,-100.00,ESE,123,4.0,7.0,64,0.00,,,0.00,,2013-09-08 10:33:00,
2013-09-08 04:42:00,56.0,42.0,-100.00,ESE,121,4.0,7.0,60,0.00,,,-99.99,,2013-09-08 10:42:00,
2013-09-08 05:12:00,56.0,42.0,-100.00,ESE,121,4.0,7.0,60,0.00,,,-99.99,,2013-09-08 11:12:00,
2013-09-08 05:21:00,56.0,42.0,-100.00,ESE,121,4.0,7.0,60,0.00,,,-99.99,,2013-09-08 11:21:00,
2013-09-08 05:33:00,56.0,42.0,-100.00,ESE,121,4.0,7.0,60,0.00,,,-99.99,,2013-09-08 11:33:00,
2013-09-08 05:42:00,56.0,42.0,-100.00,ESE,111,4.0,8.0,60,0.00,,,0.00,,2013-09-08 11:42:00,
2013-09-08 06:12:00,56.0,42.0,-100.00,ESE,111,4.0,8.0,60,0.00,,,0.00,,2013-09-08 12:12:00,
2013-09-08 06:22:00,56.0,42.0,-100.00,ESE,111,4.0,8.0,60,0.00,,,0.00,,2013-09-08 12:22:00,
2013-09-08 06:32:00,56.0,42.0,-100.00,ESE,111,4.0,8.0,60,0.00,,,0.00,,2013-09-08 12:32:00,
2013-09-08 07:11:00,56.0,43.0,-100.00,ESE,110,4.0,6.0,61,0.00,,,0.00,,2013-09-08 13:11:00,
2013-09-08 07:22:00,56.0,43.0,-100.00,ESE,110,4.0,6.0,61,0.00,,,0.00,,2013-09-08 13:22:00,
2013-09-08 07:31:00,56.0,43.0,-100.00,ESE,110,4.0,6.0,61,0.00,,,0.00,,2013-09-08 13:31:00,
2013-09-08 07:41:00,56.0,43.0,-100.00,ESE,110,4.0,6.0,61,0.00,,,0.00,,2013-09-08 13:41:00,
2013-09-08 07:42:00,57.0,43.0,-100.00,SE,126,3.0,6.0,59,0.00,,,0.00,,2013-09-08 13:42:00,
2013-09-08 08:11:00,57.0,43.0,-100.00,SE,126,3.0,6.0,59,0.00,,,0.00,,2013-09-08 14:11:00,
2013-09-08 08:22:00,57.0,43.0,-100.00,SE,126,3.0,6.0,59,0.00,,,0.00,,2013-09-08 14:22:00,
2013-09-08 08:31:00,57.0,43.0,-100.00,SE,126,3.0,6.0,59,0.00,,,0.00,,2013-09-08 14:31:00,
2013-09-08 08:42:00,61.0,42.0,-100.00,SSE,147,2.0,5.0,50,0.00,,,0.00,,2013-09-08 14:42:00,
2013-09-08 09:12:00,61.0,42.0,-100.00,SSE,147,2.0,5.0,50,0.00,,,0.00,,2013-09-08 15:12:00,
2013-09-08 09:23:00,61.0,42.0,-100.00,SSE,147,2.0,5.0,50,0.00,,,0.00,,2013-09-08 15:23:00,
2013-09-08 09:34:00,61.0,42.0,-100.00,SSE,147,2.0,5.0,50,0.00,,,0.00,,2013-09-08 15:34:00,
2013-09-08 09:42:00,65.0,44.0,-100.00,West,269,5.0,7.0,46,0.00,,,0.00,,2013-09-08 15:42:00,
2013-09-08 10:14:00,65.0,44.0,-100.00,West,269,5.0,7.0,46,0.00,,,0.00,,2013-09-08 16:14:00,
2013-09-08 10:23:00,65.0,44.0,-100.00,West,269,5.0,7.0,46,0.00,,,0.00,,2013-09-08 16:23:00,
2013-09-08 10:34:00,65.0,44.0,-100.00,West,269,5.0,7.0,46,0.00,,,0.00,,2013-09-08 16:34:00,
2013-09-08 10:42:00,65.0,44.0,-100.00,SSW,197,5.0,10.0,47,0.00,,,0.00,,2013-09-08 16:42:00,
2013-09-08 11:12:00,65.0,44.0,-100.00,SSW,197,5.0,10.0,47,0.00,,,0.00,,2013-09-08 17:12:00,
2013-09-08 11:23:00,65.0,44.0,-100.00,SSW,197,5.0,10.0,47,0.00,,,0.00,,2013-09-08 17:23:00,
2013-09-08 11:34:00,65.0,44.0,-100.00,SSW,197,5.0,10.0,47,0.00,,,0.00,,2013-09-08 17:34:00,
2013-09-08 11:42:00,70.0,44.0,-100.00,South,183,5.0,12.0,39,0.00,,,0.00,,2013-09-08 17:42:00,
2013-09-08 12:13:00,70.0,44.0,-100.00,South,183,5.0,12.0,39,0.00,,,0.00,,2013-09-08 18:13:00,
2013-09-08 12:22:00,70.0,44.0,-100.00,South,183,5.0,12.0,39,0.00,,,0.00,,2013-09-08 18:22:00,
2013-09-08 12:32:00,70.0,44.0,-100.00,South,183,5.0,12.0,39,0.00,,,0.00,,2013-09-08 18:32:00,
2013-09-08 12:42:00,69.0,44.0,-100.00,SSW,205,6.0,12.0,41,0.00,,,0.00,,2013-09-08 18:42:00,
2013-09-08 13:12:00,69.0,44.0,-100.00,SSW,205,6.0,12.0,41,0.00,,,0.00,,2013-09-08 19:12:00,
2013-09-08 13:22:00,69.0,44.0,-100.00,SSW,205,6.0,12.0,41,0.00,,,0.00,,2013-09-08 19:22:00,
2013-09-08 13:32:00,69.0,44.0,-100.00,SSW,205,6.0,12.0,41,0.00,,,0.00,,2013-09-08 19:32:00,
2013-09-08 13:42:00,69.0,45.0,-100.00,South,188,6.0,12.0,42,0.00,,,0.00,,2013-09-08 19:42:00,
2013-09-08 14:11:00,69.0,45.0,-100.00,South,188,6.0,12.0,42,0.00,,,0.00,,2013-09-08 20:11:00,
2013-09-08 14:22:00,69.0,45.0,-100.00,South,188,6.0,12.0,42,0.00,,,0.00,,2013-09-08 20:22:00,
2013-09-08 14:32:00,69.0,45.0,-100.00,South,188,6.0,12.0,42,0.00,,,0.00,,2013-09-08 20:32:00,
2013-09-08 14:42:00,69.0,44.0,-100.00,SW,214,6.0,14.0,40,0.00,,,0.00,,2013-09-08 20:42:00,
2013-09-08 15:12:00,69.0,44.0,-100.00,SW,214,6.0,14.0,40,0.00,,,0.00,,2013-09-08 21:12:00,
2013-09-08 15:22:00,69.0,44.0,-100.00,SW,214,6.0,14.0,40,0.00,,,0.00,,2013-09-08 21:22:00,
2013-09-08 15:34:00,69.0,44.0,-100.00,SW,214,6.0,14.0,40,0.00,,,0.00,,2013-09-08 21:34:00,
2013-09-08 15:42:00,68.0,44.0,-100.00,SW,236,7.0,15.0,42,0.00,,,0.00,,2013-09-08 21:42:00,
2013-09-08 16:13:00,68.0,44.0,-100.00,SW,236,7.0,15.0,42,0.00,,,0.00,,2013-09-08 22:13:00,
2013-09-08 16:24:00,68.0,44.0,-100.00,SW,236,7.0,15.0,42,0.00,,,0.00,,2013-09-08 22:24:00,
2013-09-08 16:33:00,68.0,44.0,-100.00,SW,236,7.0,15.0,42,0.00,,,0.00,,2013-09-08 22:33:00,
2013-09-08 16:42:00,66.0,45.0,-100.00,West,263,8.0,15.0,46,0.00,,,0.00,,2013-09-08 22:42:00,
2013-09-08 17:12:00,66.0,45.0,-100.00,West,263,8.0,15.0,46,0.00,,,0.00,,2013-09-08 23:12:00,
2013-09-08 17:22:00,66.0,45.0,-100.00,West,263,8.0,15.0,46,0.00,,,0.00,,2013-09-08 23:22:00,
2013-09-08 17:34:00,66.0,45.0,-100.00,West,263,8.0,15.0,46,0.00,,,0.00,,2013-09-08 23:34:00,
2013-09-08 17:42:00,63.0,45.0,-100.00,WSW,251,8.0,15.0,51,0.00,,,0.00,,2013-09-08 23:42:00,
2013-09-08 18:11:00,63.0,45.0,-100.00,WSW,251,8.0,15.0,51,0.00,,,0.00,,2013-09-09 00:11:00,
2013-09-08 18:22:00,63.0,45.0,-100.00,WSW,251,8.0,15.0,51,0.00,,,0.00,,2013-09-09 00:22:00,
2013-09-08 18:32:00,63.0,45.0,-100.00,WSW,251,8.0,15.0,51,0.00,,,0.00,,2013-09-09 00:32:00,
2013-09-08 18:42:00,58.0,47.0,-100.00,WNW,291,8.0,16.0,66,0.00,,,0.00,,2013-09-09 00:42:00,
2013-09-08 19:12:00,58.0,47.0,-100.00,WNW,291,8.0,16.0,66,0.00,,,0.00,,2013-09-09 01:12:00,
2013-09-08 19:21:00,58.0,47.0,-100.00,WNW,291,8.0,16.0,66,0.00,,,0.00,,2013-09-09 01:21:00,
2013-09-08 19:32:00,58.0,47.0,-100.00,WNW,291,8.0,16.0,66,0.00,,,0.00,,2013-09-09 01:32:00,
2013-09-08 19:42:00,54.0,50.0,-100.00,NNW,331,4.0,12.0,85,0.00,,,0.00,,2013-09-09 01:42:00,
2013-09-08 20:11:00,54.0,50.0,-100.00,NNW,331,4.0,12.0,85,0.00,,,0.00,,2013-09-09 02:11:00,
2013-09-08 20:21:00,54.0,50.0,-100.00,NNW,331,4.0,12.0,85,0.00,,,0.00,,2013-09-09 02:21:00,
2013-09-08 20:32:00,54.0,50.0,-100.00,NNW,331,4.0,12.0,85,0.00,,,0.00,,2013-09-09 02:32:00,
2013-09-08 20:42:00,54.0,50.0,-100.00,NNW,346,3.0,6.0,86,0.00,,,0.00,,2013-09-09 02:42:00,
2013-09-08 21:12:00,54.0,50.0,-100.00,NNW,346,3.0,6.0,86,0.00,,,0.00,,2013-09-09 03:12:00,
2013-09-08 21:22:00,54.0,50.0,-100.00,NNW,346,3.0,6.0,86,0.00,,,0.00,,2013-09-09 03:22:00,
2013-09-08 21:34:00,54.0,50.0,-100.00,NNW,346,3.0,6.0,86,0.00,,,0.00,,2013-09-09 03:34:00,
2013-09-08 21:42:00,53.0,49.0,-100.00,NNW,327,3.0,6.0,87,0.00,,,0.00,,2013-09-09 03:42:00,
2013-09-08 22:14:00,53.0,49.0,-100.00,NNW,327,3.0,6.0,87,0.00,,,0.00,,2013-09-09 04:14:00,
2013-09-08 22:24:00,53.0,49.0,-100.00,NNW,327,3.0,6.0,87,0.00,,,0.00,,2013-09-09 04:24:00,
2013-09-08 22:33:00,53.0,49.0,-100.00,NNW,327,3.0,6.0,87,0.00,,,0.00,,2013-09-09 04:33:00,
2013-09-08 22:42:00,52.0,49.0,-100.00,ESE,108,2.0,4.0,89,0.00,,,0.00,,2013-09-09 04:42:00,
2013-09-08 23:13:00,52.0,49.0,-100.00,ESE,108,2.0,4.0,89,0.00,,,0.00,,2013-09-09 05:13:00,
2013-09-08 23:23:00,52.0,49.0,-100.00,ESE,108,2.0,4.0,89,0.00,,,0.00,,2013-09-09 05:23:00,
2013-09-08 23:34:00,52.0,49.0,-100.00,ESE,108,2.0,4.0,89,0.00,,,0.00,,2013-09-09 05:34:00,
2013-09-08 23:42:00,52.0,49.0,-100.00,ESE,120,2.0,3.0,91,0.00,,,0.00,,2013-09-09 05:42:00,